createdAt,value
2022-11-12T00:01:14.356Z,81.96
2022-11-12T00:03:15.942Z,82.18
2022-11-12T00:05:17.575Z,82.37
2022-11-12T00:07:19.046Z,81.47
2022-11-12T00:09:20.490Z,82.32
2022-11-12T00:11:21.929Z,81.71
2022-11-12T00:13:23.368Z,81.77
2022-11-12T00:15:26.207Z,81.76
2022-11-12T00:17:27.762Z,81.46
2022-11-12T00:19:29.183Z,81.64
2022-11-12T00:21:30.644Z,81.36
2022-11-12T00:23:32.073Z,82.06
2022-11-12T00:25:33.547Z,81.67
2022-11-12T00:27:35.652Z,81.69
2022-11-12T00:29:38.818Z,81.50
2022-11-12T00:31:40.251Z,81.71
2022-11-12T00:33:42.982Z,81.52
2022-11-12T00:35:44.440Z,82.46
2022-11-12T00:37:45.853Z,83.00
2022-11-12T00:39:47.328Z,83.07
2022-11-12T00:41:48.761Z,82.45
2022-11-12T00:43:50.224Z,82.78
2022-11-12T00:45:51.773Z,82.76
2022-11-12T00:47:57.013Z,83.67
2022-11-12T00:49:58.425Z,83.40
2022-11-12T00:51:59.848Z,82.99
2022-11-12T00:54:01.445Z,83.17
2022-11-12T00:56:06.761Z,82.85
2022-11-12T00:58:08.214Z,81.93
2022-11-12T01:00:15.390Z,81.80
2022-11-12T01:02:16.810Z,81.94
2022-11-12T01:04:18.288Z,81.63
2022-11-12T01:06:22.057Z,81.98
2022-11-12T01:08:24.353Z,82.02
2022-11-12T01:10:26.150Z,81.93
2022-11-12T01:12:27.568Z,81.86
2022-11-12T01:14:29.034Z,82.15
2022-11-12T01:16:34.455Z,82.12
2022-11-12T01:18:36.207Z,81.79
2022-11-12T01:20:39.353Z,82.28
2022-11-12T01:22:40.776Z,81.50
2022-11-12T01:24:42.186Z,81.95
2022-11-12T01:26:43.606Z,81.37
2022-11-12T01:28:45.063Z,81.53
2022-11-12T01:30:46.509Z,81.66
2022-11-12T01:32:48.519Z,81.66
2022-11-12T01:34:51.137Z,82.00
2022-11-12T01:36:52.599Z,81.82
2022-11-12T01:38:55.475Z,81.33
2022-11-12T01:40:56.918Z,81.47
2022-11-12T01:42:58.327Z,82.01
2022-11-12T01:44:59.792Z,81.96
2022-11-12T01:47:19.562Z,82.25
2022-11-12T01:49:31.450Z,82.59
2022-11-12T01:51:42.554Z,81.78
2022-11-12T01:53:49.613Z,81.98
2022-11-12T01:55:52.858Z,81.95
2022-11-12T01:58:10.594Z,82.68
2022-11-12T02:00:13.794Z,82.29
2022-11-12T02:02:15.227Z,82.36
2022-11-12T02:04:17.429Z,82.05
2022-11-12T02:06:20.307Z,81.30
2022-11-12T02:08:23.504Z,81.71
2022-11-12T02:10:25.632Z,82.21
2022-11-12T02:12:45.869Z,81.88
2022-11-12T02:14:47.355Z,82.19
2022-11-12T02:16:49.248Z,82.13
2022-11-12T02:18:50.687Z,82.03
2022-11-12T02:21:03.124Z,81.88
2022-11-12T02:23:07.032Z,81.89
2022-11-12T02:25:12.962Z,81.92
2022-11-12T02:27:14.523Z,81.25
2022-11-12T02:29:15.955Z,81.25
2022-11-12T02:31:17.419Z,81.41
2022-11-12T02:33:18.819Z,81.47
2022-11-12T02:35:20.236Z,82.08
2022-11-12T02:37:21.681Z,82.16
2022-11-12T02:39:23.096Z,81.38
2022-11-12T02:41:24.597Z,81.47
2022-11-12T02:43:26.121Z,82.44
2022-11-12T02:45:28.130Z,82.33
2022-11-12T02:47:29.679Z,82.50
2022-11-12T02:49:31.127Z,82.26
2022-11-12T02:51:32.616Z,82.09
2022-11-12T02:53:34.598Z,81.50
2022-11-12T02:55:36.069Z,81.61
2022-11-12T02:57:38.861Z,81.33
2022-11-12T02:59:40.277Z,81.99
2022-11-12T03:01:41.738Z,81.75
2022-11-12T03:03:43.338Z,81.50
2022-11-12T03:05:46.036Z,81.64
2022-11-12T03:07:47.458Z,81.36
2022-11-12T03:09:48.876Z,81.50
2022-11-12T03:11:50.350Z,81.63
2022-11-12T03:13:51.804Z,81.92
2022-11-12T03:16:00.578Z,81.32
2022-11-12T03:18:01.976Z,81.02
2022-11-12T03:20:03.710Z,81.67
2022-11-12T03:22:05.123Z,81.21
2022-11-12T03:24:06.819Z,81.28
2022-11-12T03:26:08.264Z,81.43
2022-11-12T03:28:12.589Z,81.38
2022-11-12T03:30:14.048Z,81.58
2022-11-12T03:32:15.455Z,81.76
2022-11-12T03:34:17.063Z,81.30
2022-11-12T03:36:18.552Z,81.42
2022-11-12T03:38:19.989Z,81.10
2022-11-12T03:40:22.114Z,82.27
2022-11-12T03:42:23.548Z,81.99
2022-11-12T03:44:24.968Z,81.60
2022-11-12T03:46:26.421Z,81.83
2022-11-12T03:48:28.195Z,81.83
2022-11-12T03:50:30.432Z,81.84
2022-11-12T03:52:31.834Z,82.03
2022-11-12T03:54:33.393Z,81.81
2022-11-12T03:56:34.843Z,81.74
2022-11-12T03:58:36.261Z,81.70
2022-11-12T04:00:37.708Z,83.31
2022-11-12T04:02:39.129Z,83.23
2022-11-12T04:04:58.842Z,82.69
2022-11-12T04:07:20.524Z,82.78
2022-11-12T04:09:21.979Z,82.32
2022-11-12T04:11:23.769Z,81.93
2022-11-12T04:13:28.687Z,82.06
2022-11-12T04:15:30.104Z,82.00
2022-11-12T04:17:50.074Z,82.26
2022-11-12T04:20:09.832Z,81.75
2022-11-12T04:22:11.826Z,81.40
2022-11-12T04:24:33.214Z,81.00
2022-11-12T04:26:34.644Z,81.23
2022-11-12T04:28:36.063Z,81.35
2022-11-12T04:30:37.490Z,80.99
2022-11-12T04:32:45.727Z,80.81
2022-11-12T04:34:47.202Z,81.13
2022-11-12T04:36:48.733Z,80.96
2022-11-12T04:38:50.169Z,80.87
2022-11-12T04:41:09.883Z,81.40
2022-11-12T04:43:32.498Z,81.35
2022-11-12T04:45:42.585Z,81.40
2022-11-12T04:47:44.064Z,81.03
2022-11-12T04:49:45.476Z,81.17
2022-11-12T04:52:04.901Z,81.07
2022-11-12T04:54:06.324Z,80.94
2022-11-12T04:56:07.799Z,80.78
2022-11-12T04:58:09.345Z,81.20
2022-11-12T05:00:11.653Z,82.29
2022-11-12T05:02:13.364Z,82.89
2022-11-12T05:04:14.823Z,82.51
2022-11-12T05:06:34.873Z,82.12
2022-11-12T05:08:36.301Z,81.94
2022-11-12T05:10:37.811Z,82.21
2022-11-12T05:12:39.388Z,82.21
2022-11-12T05:14:40.865Z,81.96
2022-11-12T05:16:42.650Z,81.66
2022-11-12T05:18:44.059Z,82.14
2022-11-12T05:20:45.596Z,83.23
2022-11-12T05:23:04.423Z,83.89
2022-11-12T05:25:08.666Z,83.68
2022-11-12T05:27:16.250Z,83.32
2022-11-12T05:29:18.421Z,83.15
2022-11-12T05:31:19.927Z,83.65
2022-11-12T05:33:22.006Z,83.51
2022-11-12T05:35:23.443Z,83.00
2022-11-12T05:37:24.924Z,82.68
2022-11-12T05:39:26.605Z,82.29
2022-11-12T05:41:32.891Z,82.75
2022-11-12T05:43:46.564Z,82.83
2022-11-12T05:45:48.006Z,82.32
2022-11-12T05:47:49.419Z,82.17
2022-11-12T05:49:50.856Z,82.27
2022-11-12T05:51:52.327Z,82.95
2022-11-12T05:53:53.739Z,83.75
2022-11-12T05:56:00.548Z,82.86
2022-11-12T05:58:06.579Z,82.29
2022-11-12T06:00:08.898Z,82.39
2022-11-12T06:02:10.377Z,83.31
2022-11-12T06:04:13.141Z,84.64
2022-11-12T06:06:14.903Z,84.90
2022-11-12T06:08:16.463Z,84.51
2022-11-12T06:10:20.636Z,83.50
2022-11-12T06:12:22.279Z,84.14
2022-11-12T06:14:23.694Z,85.49
2022-11-12T06:16:25.143Z,86.15
2022-11-12T06:18:26.780Z,85.08
2022-11-12T06:20:28.396Z,84.18
2022-11-12T06:22:29.868Z,83.47
2022-11-12T06:24:34.929Z,84.10
2022-11-12T06:26:37.989Z,85.30
2022-11-12T06:28:39.505Z,86.29
2022-11-12T06:30:40.952Z,85.73
2022-11-12T06:32:42.445Z,84.40
2022-11-12T06:34:43.882Z,84.07
2022-11-12T06:36:45.343Z,84.90
2022-11-12T06:38:47.221Z,85.42
2022-11-12T06:40:48.673Z,86.36
2022-11-12T06:42:56.678Z,86.57
2022-11-12T06:44:58.102Z,85.13
2022-11-12T06:46:59.518Z,84.16
2022-11-12T06:49:00.938Z,84.21
2022-11-12T06:51:07.603Z,84.66
2022-11-12T06:53:09.063Z,85.63
2022-11-12T06:55:10.530Z,84.89
2022-11-12T06:57:11.998Z,84.20
2022-11-12T06:59:13.465Z,83.58
2022-11-12T07:01:17.175Z,84.20
2022-11-12T07:03:18.741Z,85.27
2022-11-12T07:05:20.173Z,85.86
2022-11-12T07:07:21.782Z,84.87
2022-11-12T07:09:23.309Z,84.05
2022-11-12T07:11:24.802Z,84.50
2022-11-12T07:13:26.301Z,86.08
2022-11-12T07:15:27.743Z,87.34
2022-11-12T07:17:29.170Z,86.87
2022-11-12T07:19:30.651Z,85.35
2022-11-12T07:21:32.118Z,85.12
2022-11-12T07:23:35.665Z,85.75
2022-11-12T07:25:37.111Z,87.37
2022-11-12T07:27:38.659Z,88.29
2022-11-12T07:29:47.979Z,87.61
2022-11-12T07:31:50.065Z,85.66
2022-11-12T07:33:51.716Z,84.41
2022-11-12T07:35:59.032Z,83.85
2022-11-12T07:38:00.532Z,83.64
2022-11-12T07:40:03.701Z,82.68
2022-11-12T07:42:05.194Z,81.86
2022-11-12T07:44:06.836Z,81.37
2022-11-12T07:46:11.380Z,81.15
2022-11-12T07:48:12.930Z,80.79
2022-11-12T07:50:14.608Z,80.75
2022-11-12T07:52:16.110Z,80.84
2022-11-12T07:54:17.571Z,81.76
2022-11-12T07:56:21.136Z,83.60
2022-11-12T07:58:23.906Z,85.56
2022-11-12T08:00:25.594Z,87.67
2022-11-12T08:02:27.049Z,88.47
2022-11-12T08:04:28.536Z,88.13
2022-11-12T08:06:31.367Z,87.46
2022-11-12T08:08:32.846Z,87.18
2022-11-12T08:10:34.320Z,86.10
2022-11-12T08:12:35.741Z,84.93
2022-11-12T08:14:37.165Z,83.97
2022-11-12T08:16:38.610Z,83.63
2022-11-12T08:18:40.227Z,83.60
2022-11-12T08:20:41.932Z,83.63
2022-11-12T08:22:48.925Z,85.12
2022-11-12T08:24:50.750Z,83.83
2022-11-12T08:26:52.181Z,81.99
2022-11-12T08:28:53.620Z,80.93
2022-11-12T08:30:55.488Z,80.48
2022-11-12T08:33:01.742Z,80.16
2022-11-12T08:35:03.523Z,80.71
2022-11-12T08:37:04.977Z,79.95
2022-11-12T08:39:07.793Z,78.85
2022-11-12T08:41:11.969Z,78.77
2022-11-12T08:43:13.493Z,78.39
2022-11-12T08:45:14.951Z,79.15
2022-11-12T08:47:16.428Z,80.00
2022-11-12T08:49:17.934Z,81.63
2022-11-12T08:51:19.814Z,82.00
2022-11-12T08:53:23.269Z,83.58
2022-11-12T08:55:24.712Z,83.86
2022-11-12T08:57:26.126Z,84.60
2022-11-12T08:59:27.536Z,84.12
2022-11-12T09:01:29.529Z,84.49
2022-11-12T09:03:31.028Z,84.54
2022-11-12T09:05:34.091Z,84.94
2022-11-12T09:07:49.468Z,85.04
2022-11-12T09:09:51.991Z,84.85
2022-11-12T09:11:53.446Z,84.08
2022-11-12T09:13:55.171Z,84.18
2022-11-12T09:16:01.498Z,84.24
2022-11-12T09:18:05.780Z,84.11
2022-11-12T09:20:07.549Z,83.76
2022-11-12T09:22:09.064Z,84.29
2022-11-12T09:24:10.503Z,85.07
2022-11-12T09:26:11.965Z,85.66
2022-11-12T09:28:15.767Z,85.08
2022-11-12T09:30:17.283Z,84.83
2022-11-12T09:32:18.743Z,84.64
2022-11-12T09:34:20.300Z,84.79
2022-11-12T09:36:21.730Z,84.12
2022-11-12T09:38:23.359Z,84.96
2022-11-12T09:40:50.216Z,84.80
2022-11-12T09:42:56.041Z,85.61
2022-11-12T09:45:04.056Z,85.36
2022-11-12T09:47:19.288Z,85.97
2022-11-12T09:49:36.263Z,86.52
2022-11-12T09:51:55.621Z,87.06
2022-11-12T09:53:59.940Z,87.20
2022-11-12T09:56:06.247Z,87.41
2022-11-12T09:58:16.156Z,87.86
2022-11-12T10:00:19.631Z,87.48
2022-11-12T10:02:27.292Z,88.12
2022-11-12T10:04:28.676Z,88.32
2022-11-12T10:06:38.375Z,88.32
2022-11-12T10:08:42.889Z,88.37
2022-11-12T10:10:48.514Z,88.17
2022-11-12T10:13:27.322Z,88.02
2022-11-12T10:15:51.346Z,88.33
2022-11-12T10:18:07.037Z,88.29
2022-11-12T10:20:33.526Z,88.28
2022-11-12T10:23:06.031Z,87.49
2022-11-12T10:25:16.044Z,87.55
2022-11-12T10:27:26.210Z,86.77
2022-11-12T10:29:50.604Z,86.25
2022-11-12T10:31:52.039Z,84.49
2022-11-12T10:34:21.527Z,82.76
2022-11-12T10:36:35.782Z,82.52
2022-11-12T10:38:38.510Z,82.57
2022-11-12T10:40:41.730Z,81.19
2022-11-12T10:43:19.862Z,81.42
2022-11-12T10:45:23.060Z,82.53
2022-11-12T10:47:26.210Z,81.46
2022-11-12T10:49:27.723Z,81.85
2022-11-12T10:51:30.648Z,81.97
2022-11-12T10:53:32.027Z,82.15
2022-11-12T10:55:38.893Z,81.39
2022-11-12T10:57:40.520Z,82.27
2022-11-12T10:59:41.952Z,81.53
2022-11-12T11:01:46.071Z,81.85
2022-11-12T11:03:55.806Z,82.19
2022-11-12T11:06:22.204Z,81.75
2022-11-12T11:08:44.146Z,81.26
2022-11-12T11:10:45.625Z,80.97
2022-11-12T11:12:47.066Z,80.81
2022-11-12T11:15:07.400Z,81.18
2022-11-12T11:17:18.460Z,80.95
2022-11-12T11:19:20.725Z,80.94
2022-11-12T11:21:47.128Z,80.77
2022-11-12T11:23:55.195Z,81.21
2022-11-12T11:26:00.000Z,81.08
2022-11-12T11:28:07.520Z,80.74
2022-11-12T11:30:12.155Z,81.16
2022-11-12T11:32:23.290Z,80.71
2022-11-12T11:34:27.628Z,80.80
2022-11-12T11:36:47.503Z,80.50
2022-11-12T11:38:54.680Z,79.49
2022-11-12T11:41:12.294Z,78.78
2022-11-12T11:43:34.206Z,78.70
2022-11-12T11:45:54.465Z,78.20
2022-11-12T11:48:11.361Z,76.32
2022-11-12T11:50:19.931Z,76.39
2022-11-12T11:52:42.735Z,76.40
2022-11-12T11:54:56.411Z,76.36
2022-11-12T11:57:01.953Z,76.45
2022-11-12T11:59:21.355Z,76.80
2022-11-12T12:01:31.925Z,77.12
2022-11-12T12:03:53.625Z,76.87
2022-11-12T12:06:36.679Z,88.93
2022-11-12T12:08:45.525Z,96.01
2022-11-12T12:13:35.761Z,100.00
2022-11-12T12:15:42.971Z,100.00
2022-11-12T12:18:01.114Z,100.00
2022-11-12T12:20:30.507Z,100.00
2022-11-12T12:22:40.553Z,100.00
2022-11-12T12:24:52.927Z,100.00
2022-11-12T12:27:00.387Z,100.00
2022-11-12T12:29:15.265Z,100.00
2022-11-12T12:31:22.528Z,100.00
2022-11-12T12:33:30.278Z,100.00
2022-11-12T12:35:36.600Z,100.00
2022-11-12T12:37:50.125Z,100.00
2022-11-12T12:40:25.060Z,100.00
2022-11-12T12:42:32.031Z,100.00
2022-11-12T12:45:05.677Z,100.00
2022-11-12T12:47:12.074Z,100.00
2022-11-12T12:49:18.934Z,100.00
2022-11-12T12:51:21.982Z,100.00
2022-11-12T12:53:29.647Z,100.00
2022-11-12T12:55:51.881Z,100.00
2022-11-12T12:57:59.280Z,100.00
2022-11-12T13:00:31.431Z,100.00
2022-11-12T13:02:38.200Z,100.00
2022-11-12T13:04:58.246Z,100.00
2022-11-12T13:06:59.858Z,100.00
2022-11-12T13:09:17.704Z,100.00
2022-11-12T13:12:01.163Z,100.00
2022-11-12T13:14:31.545Z,100.00
2022-11-12T13:16:51.277Z,100.00
2022-11-12T13:18:52.690Z,100.00
2022-11-12T13:21:15.791Z,100.00
2022-11-12T13:24:07.417Z,100.00
2022-11-12T13:26:52.287Z,100.00
2022-11-12T13:29:39.144Z,100.00
2022-11-12T13:31:40.595Z,100.00
2022-11-12T13:33:42.298Z,100.00
2022-11-12T13:35:43.755Z,100.00
2022-11-12T13:37:49.698Z,100.00
2022-11-12T13:39:51.838Z,100.00
2022-11-12T13:42:17.547Z,100.00
2022-11-12T13:44:19.157Z,100.00
2022-11-12T13:46:31.400Z,100.00
2022-11-12T13:48:59.920Z,100.00
2022-11-12T13:51:12.853Z,100.00
2022-11-12T13:53:20.378Z,100.00
2022-11-12T13:55:22.910Z,100.00
2022-11-12T13:57:28.707Z,100.00
2022-11-12T13:59:30.156Z,100.00
2022-11-12T14:01:32.521Z,100.00
2022-11-12T14:03:54.286Z,100.00
2022-11-12T14:05:56.844Z,100.00
2022-11-12T14:08:13.654Z,100.00
2022-11-12T14:10:29.829Z,100.00
2022-11-12T14:12:34.430Z,100.00
2022-11-12T14:14:54.177Z,100.00
2022-11-12T14:17:12.716Z,100.00
2022-11-12T14:19:55.710Z,100.00
2022-11-12T14:22:16.850Z,100.00
2022-11-12T14:24:18.409Z,100.00
2022-11-12T14:26:43.078Z,100.00
2022-11-12T14:28:44.487Z,100.00
2022-11-12T14:30:45.970Z,100.00
2022-11-12T14:33:01.070Z,100.00
2022-11-12T14:35:37.072Z,100.00
2022-11-12T14:37:43.395Z,100.00
2022-11-12T14:39:45.373Z,100.00
2022-11-12T14:41:49.130Z,100.00
2022-11-12T14:44:10.894Z,100.00
2022-11-12T14:46:25.876Z,100.00
2022-11-12T14:48:27.719Z,100.00
2022-11-12T14:50:37.374Z,100.00
2022-11-12T14:52:47.743Z,100.00
2022-11-12T14:54:54.819Z,100.00
2022-11-12T14:56:59.368Z,100.00
2022-11-12T14:59:01.446Z,100.00
2022-11-12T15:03:46.219Z,100.00
2022-11-12T15:05:55.401Z,100.00
2022-11-12T15:08:03.763Z,100.00
2022-11-12T15:10:28.030Z,100.00
2022-11-12T15:12:34.427Z,100.00
2022-11-12T15:14:36.004Z,100.00
2022-11-12T15:16:42.762Z,100.00
2022-11-12T15:18:44.298Z,100.00
2022-11-12T15:20:46.104Z,100.00
2022-11-12T15:22:52.157Z,100.00
2022-11-12T15:24:53.677Z,100.00
2022-11-12T15:26:57.139Z,100.00
2022-11-12T15:29:00.152Z,100.00
2022-11-12T15:31:17.455Z,100.00
2022-11-12T15:33:22.617Z,100.00
2022-11-12T15:35:26.786Z,100.00
2022-11-12T15:37:33.486Z,100.00
2022-11-12T15:39:42.839Z,100.00
2022-11-12T15:41:44.302Z,100.00
2022-11-12T15:43:45.829Z,100.00
2022-11-12T15:45:52.361Z,100.00
2022-11-12T15:47:53.837Z,100.00
2022-11-12T15:49:59.139Z,100.00
2022-11-12T15:52:00.575Z,100.00
2022-11-12T15:54:02.001Z,100.00
2022-11-12T15:56:05.298Z,100.00
2022-11-12T15:58:11.975Z,100.00
2022-11-12T16:00:15.402Z,100.00
2022-11-12T16:02:16.970Z,100.00
2022-11-12T16:04:18.383Z,100.00
2022-11-12T16:06:19.867Z,100.00
2022-11-12T16:08:21.295Z,100.00
2022-11-12T16:10:22.737Z,100.00
2022-11-12T16:12:24.611Z,100.00
2022-11-12T16:14:27.017Z,100.00
2022-11-12T16:16:28.530Z,100.00
2022-11-12T16:18:29.965Z,100.00
2022-11-12T16:20:34.149Z,100.00
2022-11-12T16:22:35.567Z,100.00
2022-11-12T16:24:37.013Z,100.00
2022-11-12T16:26:38.557Z,100.00
2022-11-12T16:28:40.085Z,100.00
2022-11-12T16:30:42.221Z,100.00
2022-11-12T16:32:44.216Z,100.00
2022-11-12T16:34:45.672Z,100.00
2022-11-12T16:36:47.594Z,100.00
2022-11-12T16:38:49.074Z,100.00
2022-11-12T16:40:50.513Z,100.00
2022-11-12T16:42:52.219Z,100.00
2022-11-12T16:44:53.627Z,100.00
2022-11-12T16:46:55.084Z,100.00
2022-11-12T16:48:56.898Z,100.00
2022-11-12T16:50:59.472Z,100.00
2022-11-12T16:53:00.906Z,100.00
2022-11-12T16:55:04.762Z,100.00
2022-11-12T16:57:06.594Z,100.00
2022-11-12T16:59:11.943Z,100.00
2022-11-12T17:01:34.293Z,100.00
2022-11-12T17:03:35.734Z,100.00
2022-11-12T17:05:37.155Z,100.00
2022-11-12T17:07:38.588Z,100.00
2022-11-12T17:09:40.046Z,100.00
2022-11-12T17:11:41.490Z,100.00
2022-11-12T17:13:43.748Z,100.00
2022-11-12T17:15:45.175Z,100.00
2022-11-12T17:17:46.624Z,100.00
2022-11-12T17:19:48.110Z,100.00
2022-11-12T17:21:49.741Z,100.00
2022-11-12T17:23:54.287Z,100.00
2022-11-12T17:26:03.672Z,100.00
2022-11-12T17:28:05.113Z,100.00
2022-11-12T17:30:07.080Z,100.00
2022-11-12T17:32:08.513Z,100.00
2022-11-12T17:34:10.137Z,100.00
2022-11-12T17:36:15.066Z,100.00
2022-11-12T17:38:16.516Z,100.00
2022-11-12T17:40:18.010Z,100.00
2022-11-12T17:42:19.436Z,100.00
2022-11-12T17:44:20.933Z,100.00
2022-11-12T17:46:22.525Z,100.00
2022-11-12T17:48:24.822Z,100.00
2022-11-12T17:50:27.462Z,100.00
2022-11-12T17:52:29.003Z,100.00
2022-11-12T17:54:30.461Z,100.00
2022-11-12T17:56:36.956Z,100.00
2022-11-12T17:58:38.892Z,99.94
2022-11-12T18:00:40.360Z,100.00
2022-11-12T18:02:41.786Z,100.00
2022-11-12T18:04:43.212Z,100.00
2022-11-12T18:06:44.784Z,100.00
2022-11-12T18:08:46.553Z,100.00
2022-11-12T18:10:47.979Z,100.00
2022-11-12T18:12:51.605Z,100.00
2022-11-12T18:14:53.035Z,100.00
2022-11-12T18:16:54.479Z,100.00
2022-11-12T18:18:57.207Z,100.00
2022-11-12T18:20:58.657Z,100.00
2022-11-12T18:23:00.376Z,100.00
2022-11-12T18:25:01.840Z,100.00
2022-11-12T18:27:03.429Z,100.00
2022-11-12T18:29:05.301Z,100.00
2022-11-12T18:31:07.444Z,100.00
2022-11-12T18:33:08.949Z,100.00
2022-11-12T18:35:10.498Z,100.00
2022-11-12T18:37:12.227Z,100.00
2022-11-12T18:39:14.740Z,100.00
2022-11-12T18:41:17.567Z,99.94
2022-11-12T18:43:18.987Z,100.00
2022-11-12T18:45:20.451Z,100.00
2022-11-12T18:47:21.961Z,99.98
2022-11-12T18:49:23.437Z,100.00
2022-11-12T18:51:24.992Z,99.98
2022-11-12T18:53:31.400Z,100.00
2022-11-12T18:55:32.851Z,99.78
2022-11-12T18:57:34.351Z,100.00
2022-11-12T18:59:35.773Z,100.00
2022-11-12T19:01:37.366Z,99.78
2022-11-12T19:03:38.802Z,99.63
2022-11-12T19:05:40.174Z,100.00
2022-11-12T19:07:41.524Z,100.00
2022-11-12T19:09:42.886Z,99.94
2022-11-12T19:11:44.254Z,99.76
2022-11-12T19:13:45.580Z,99.98
2022-11-12T19:15:47.024Z,100.00
2022-11-12T19:17:48.375Z,100.00
2022-11-12T19:19:49.698Z,100.00
2022-11-12T19:21:51.035Z,100.00
2022-11-12T19:23:54.613Z,100.00
2022-11-12T19:25:56.623Z,100.00
2022-11-12T19:27:57.963Z,99.43
2022-11-12T19:30:02.869Z,99.25
2022-11-12T19:32:04.811Z,98.89
2022-11-12T19:34:06.220Z,99.00
2022-11-12T19:36:08.718Z,99.73
2022-11-12T19:38:10.414Z,99.57
2022-11-12T19:40:11.867Z,98.92
2022-11-12T19:42:13.283Z,98.78
2022-11-12T19:44:14.716Z,99.19
2022-11-12T19:46:16.479Z,99.39
2022-11-12T19:48:17.792Z,98.94
2022-11-12T19:50:24.318Z,99.58
2022-11-12T19:52:26.445Z,99.71
2022-11-12T19:54:27.785Z,99.12
2022-11-12T19:56:30.543Z,98.27
2022-11-12T19:58:32.422Z,98.29
2022-11-12T20:00:33.891Z,98.30
2022-11-12T20:02:35.435Z,98.84
2022-11-12T20:04:36.766Z,98.77
2022-11-12T20:06:38.566Z,98.90
2022-11-12T20:08:40.328Z,98.75
2022-11-12T20:10:41.680Z,98.68
2022-11-12T20:12:43.084Z,97.85
2022-11-12T20:14:44.410Z,97.35
2022-11-12T20:16:45.809Z,98.18
2022-11-12T20:18:50.857Z,98.16
2022-11-12T20:20:57.014Z,98.30
2022-11-12T20:22:58.365Z,99.26
2022-11-12T20:24:59.777Z,99.63
2022-11-12T20:27:01.239Z,99.23
2022-11-12T20:29:02.581Z,99.05
2022-11-12T20:31:05.470Z,98.54
2022-11-12T20:33:06.975Z,98.69
2022-11-12T20:35:15.197Z,97.98
2022-11-12T20:37:22.556Z,97.71
2022-11-12T20:39:23.885Z,96.83
2022-11-12T20:41:26.143Z,96.25
2022-11-12T20:43:29.263Z,96.50
2022-11-12T20:45:30.857Z,95.91
2022-11-12T20:47:32.163Z,96.37
2022-11-12T20:50:08.294Z,96.05
2022-11-12T20:52:58.088Z,96.88
2022-11-12T20:54:59.534Z,96.68
2022-11-12T20:57:03.020Z,96.18
2022-11-12T20:59:04.444Z,96.82
2022-11-12T21:01:07.976Z,96.94
2022-11-12T21:03:09.440Z,97.10
2022-11-12T21:05:10.978Z,96.60
2022-11-12T21:07:12.705Z,97.44
2022-11-12T21:09:14.304Z,97.50
2022-11-12T21:11:18.570Z,96.88
2022-11-12T21:13:20.569Z,97.59
2022-11-12T21:15:22.037Z,97.78
2022-11-12T21:17:23.463Z,96.71
2022-11-12T21:19:24.906Z,97.10
2022-11-12T21:21:30.601Z,96.63
2022-11-12T21:23:34.891Z,96.91
2022-11-12T21:25:37.712Z,97.38
2022-11-12T21:27:39.272Z,97.69
2022-11-12T21:29:40.774Z,97.70
2022-11-12T21:31:42.242Z,97.68
2022-11-12T21:33:43.976Z,97.81
2022-11-12T21:35:52.284Z,97.77
2022-11-12T21:37:53.713Z,98.47
2022-11-12T21:39:55.166Z,98.71
2022-11-12T21:41:56.732Z,98.71
2022-11-12T21:43:58.649Z,97.87
2022-11-12T21:46:00.645Z,98.83
2022-11-12T21:48:02.090Z,98.36
2022-11-12T21:50:04.470Z,98.70
2022-11-12T21:52:06.111Z,98.53
2022-11-12T21:54:07.769Z,98.59
2022-11-12T21:56:19.110Z,98.77
2022-11-12T21:58:20.533Z,98.77
2022-11-12T22:00:42.568Z,98.63
2022-11-12T22:02:43.597Z,98.51
2022-11-12T22:04:45.101Z,98.35
2022-11-12T22:06:46.689Z,98.53
2022-11-12T22:08:52.290Z,98.17
2022-11-12T22:11:06.337Z,97.34
2022-11-12T22:15:29.209Z,97.14
2022-11-12T22:17:33.195Z,96.75
2022-11-12T22:19:34.694Z,96.22
2022-11-12T22:21:39.938Z,96.32
2022-11-12T22:23:41.782Z,96.55
2022-11-12T22:25:43.203Z,96.21
2022-11-12T22:27:44.743Z,96.82
2022-11-12T22:29:47.194Z,96.57
2022-11-12T22:31:48.641Z,96.96
2022-11-12T22:33:50.377Z,96.96
2022-11-12T22:35:51.834Z,97.08
2022-11-12T22:37:54.466Z,97.34
2022-11-12T22:39:55.889Z,96.87
2022-11-12T22:41:57.335Z,97.64
2022-11-12T22:44:00.903Z,97.18
2022-11-12T22:46:06.354Z,97.55
2022-11-12T22:48:07.801Z,97.88
2022-11-12T22:50:09.837Z,97.56
2022-11-12T22:52:11.272Z,96.50
2022-11-12T22:54:15.681Z,96.59
2022-11-12T22:56:17.156Z,97.00
2022-11-12T22:58:18.617Z,97.08
2022-11-12T23:00:29.296Z,96.68
2022-11-12T23:02:30.733Z,96.71
2022-11-12T23:04:32.145Z,97.35
2022-11-12T23:06:33.796Z,97.65
2022-11-12T23:08:37.905Z,97.21
2022-11-12T23:10:44.472Z,96.62
2022-11-12T23:12:47.132Z,97.27
2022-11-12T23:14:48.595Z,97.36
2022-11-12T23:16:50.045Z,97.03
2022-11-12T23:18:52.912Z,97.88
2022-11-12T23:20:54.356Z,97.65
2022-11-12T23:22:55.788Z,98.20
2022-11-12T23:24:57.199Z,97.58
2022-11-12T23:26:58.661Z,97.22
2022-11-12T23:29:01.507Z,98.18
2022-11-12T23:31:04.388Z,98.09
2022-11-12T23:33:05.889Z,99.46
2022-11-12T23:35:07.522Z,99.40
2022-11-12T23:37:08.954Z,99.12
2022-11-12T23:39:10.375Z,98.75
2022-11-12T23:41:14.479Z,98.12
2022-11-12T23:43:15.900Z,97.63
2022-11-12T23:45:17.329Z,98.28
2022-11-12T23:47:18.793Z,98.13
2022-11-12T23:49:20.225Z,97.72
2022-11-12T23:51:22.635Z,97.82
2022-11-12T23:53:24.090Z,98.09
2022-11-12T23:55:29.042Z,97.97
2022-11-12T23:57:32.885Z,98.79
2022-11-12T23:59:34.365Z,98.48
